Time;durP1;ratioP1;P1;durP2;ratioP2;P2;SDS_P1;SDS_P2;PMS_P1;PMS_P2;Temp;Humidity;BMP_temperature;BMP_pressure;BME280_temperature;BME280_humidity;BME280_pressure;Samples;Min_cycle;Max_cycle;Signal;HPM_P1;HPM_P2
2022/02/06 00:01:41;;;;;;;16.30;8.02;;;5.00;99.90;;;3.43;100.00;100088.50;4932535;28;20100;-83
2022/02/06 00:04:07;;;;;;;20.40;9.35;;;5.10;99.90;;;3.46;100.00;100085.81;4915125;28;20029;-82
2022/02/06 00:06:42;;;;;;;16.70;7.68;;;5.10;99.90;;;3.46;100.00;100075.41;4940282;28;20152;-82
2022/02/06 00:09:08;;;;;;;18.95;7.55;;;5.10;99.90;;;3.56;100.00;100080.34;4906143;28;20042;-82
2022/02/06 00:11:34;;;;;;;16.45;7.45;;;5.20;99.90;;;3.58;100.00;100073.34;5011101;23;20125;-83
2022/02/06 00:14:01;;;;;;;17.83;6.75;;;;;;;3.59;100.00;100070.72;4938223;28;20489;-83
2022/02/06 00:16:36;;;;;;;17.15;6.63;;;5.20;99.90;;;3.62;100.00;100057.59;4972205;28;20037;-82
2022/02/06 00:19:03;;;;;;;16.20;6.32;;;5.30;99.90;;;3.67;100.00;100052.25;4950583;28;20112;-82
2022/02/06 00:21:41;;;;;;;13.52;5.78;;;5.30;99.90;;;3.70;100.00;100055.63;4892068;28;20694;-81
2022/02/06 00:24:12;;;;;;;16.60;5.82;;;;;;;3.76;100.00;100046.81;4925906;28;20038;-88
2022/02/06 00:26:56;;;;;;;18.45;6.28;;;5.40;99.90;;;3.76;100.00;100038.13;4961617;28;20063;-84
2022/02/06 00:29:32;;;;;;;14.70;6.18;;;5.40;99.90;;;3.82;100.00;100033.59;4939847;28;20050;-85
2022/02/06 00:32:06;;;;;;;13.98;5.75;;;5.40;99.90;;;3.82;100.00;100030.13;4940092;23;20046;-86
2022/02/06 00:34:51;;;;;;;17.90;6.10;;;5.50;99.90;;;3.83;100.00;100029.25;4944500;28;20119;-86
2022/02/06 00:40:06;;;;;;;12.02;5.40;;;5.50;99.90;;;3.82;100.00;100015.38;4975527;28;20072;-83
2022/02/06 00:42:32;;;;;;;12.90;5.70;;;5.50;99.90;;;3.82;100.00;100010.16;4900486;28;20088;-86
2022/02/06 00:45:26;;;;;;;11.68;5.80;;;5.50;99.90;;;3.80;100.00;100005.88;4909003;28;20042;-85
2022/02/06 00:47:52;;;;;;;14.13;6.10;;;5.50;99.90;;;3.81;100.00;100003.25;4933587;28;20021;-83
2022/02/06 00:50:28;;;;;;;19.27;5.75;;;5.50;99.90;;;3.84;100.00;99997.09;4952089;28;20032;-84
2022/02/06 00:53:03;;;;;;;16.98;6.05;;;5.50;99.90;;;3.80;100.00;100005.88;5008753;23;20044;-86
2022/02/06 00:55:29;;;;;;;18.35;6.78;;;5.40;99.90;;;3.75;100.00;99993.00;4947747;28;20060;-85
2022/02/06 00:57:55;;;;;;;15.57;6.40;;;5.40;99.90;;;3.78;100.00;99982.50;4935672;28;20034;-83
2022/02/06 01:00:23;;;;;;;16.63;5.65;;;5.40;99.90;;;3.76;100.00;99992.13;4946628;28;20088;-84
2022/02/06 01:03:12;;;;;;;18.17;6.20;;;5.40;99.90;;;3.76;100.00;99979.09;4963687;28;20476;-84
2022/02/06 01:05:40;;;;;;;12.55;5.32;;;;;;;3.76;100.00;99962.59;4926932;28;20038;-83
2022/02/06 01:08:06;;;;;;;15.70;5.70;;;5.40;99.90;;;3.76;100.00;99953.06;4915407;28;20046;-83
2022/02/06 01:10:32;;;;;;;17.42;6.75;;;5.40;99.90;;;3.73;100.00;99950.53;4979538;28;20826;-83
2022/02/06 01:13:30;;;;;;;16.80;5.45;;;5.40;99.90;;;3.74;100.00;99952.25;4917814;23;20083;-82
2022/02/06 01:16:11;;;;;;;15.38;4.88;;;5.40;99.90;;;3.70;100.00;99942.84;4870537;28;20030;-83
2022/02/06 01:18:51;;;;;;;16.20;5.75;;;5.40;99.90;;;3.78;100.00;99946.06;4880016;28;20433;-83
2022/02/06 01:21:37;;;;;;;18.92;5.50;;;5.40;99.90;;;3.76;100.00;99942.66;4909415;28;20118;-83
2022/02/06 01:24:12;;;;;;;16.13;5.50;;;5.40;99.90;;;3.77;100.00;99933.91;4953862;28;20030;-81
2022/02/06 01:27:04;;;;;;;;;;;;;;;;;;;;;
2022/02/06 01:29:42;;;;;;;11.73;4.68;;;5.40;99.90;;;3.77;100.00;99920.91;4987666;28;20097;-83
2022/02/06 01:32:17;;;;;;;16.77;5.95;;;5.40;99.90;;;3.78;100.00;99917.41;4950596;23;20513;-81
2022/02/06 01:34:52;;;;;;;11.73;4.72;;;4.80;99.90;;;3.77;100.00;99920.06;4919156;28;20045;-85
2022/02/06 01:37:31;;;;;;;14.45;4.85;;;5.40;99.90;;;3.80;100.00;99912.13;4944422;28;20037;-82
2022/02/06 01:40:17;;;;;;;21.95;5.20;;;5.40;99.90;;;3.79;100.00;99900.03;4910401;28;20058;-83
2022/02/06 01:42:50;;;;;;;16.67;5.78;;;5.40;99.90;;;3.79;100.00;99895.66;4955694;28;20075;-82
2022/02/06 02:10:14;;;;;;;13.90;5.30;;;5.40;99.90;;;3.77;100.00;99814.13;4981204;28;22938;-82
2022/02/06 02:18:09;;;;;;;16.77;5.35;;;5.40;99.90;;;3.77;100.00;99792.47;4883338;28;20036;-84
2022/02/06 02:29:21;;;;;;;16.45;5.35;;;5.50;99.90;;;3.83;100.00;99766.22;4904146;28;20561;-82
2022/02/06 02:48:21;;;;;;;13.55;5.18;;;5.50;99.90;;;3.91;100.00;99727.75;4911082;28;20407;-83
2022/02/06 02:50:55;;;;;;;14.57;4.93;;;5.50;99.90;;;3.96;100.00;99714.56;4919771;28;20034;-83
2022/02/06 02:58:53;;;;;;;15.15;4.75;;;5.60;99.90;;;3.96;100.00;99701.53;4922213;28;20029;-82
2022/02/06 03:01:30;;;;;;;16.73;5.15;;;5.60;99.90;;;3.94;100.00;99696.38;4885309;28;20032;-82
2022/02/06 03:04:06;;;;;;;16.30;5.47;;;5.60;99.90;;;4.00;100.00;99695.31;4877657;28;20704;-83
2022/02/06 03:06:32;;;;;;;13.15;4.88;;;5.60;99.90;;;4.00;100.00;99697.91;4899050;28;20035;-82
2022/02/06 03:09:10;;;;;;;13.02;5.10;;;5.60;99.90;;;4.01;100.00;99681.38;4928863;28;20046;-82
2022/02/06 03:11:36;;;;;;;13.25;5.00;;;5.70;99.90;;;4.04;100.00;99673.44;4913282;28;20034;-82
2022/02/06 03:14:17;;;;;;;13.55;4.53;;;5.70;99.90;;;4.08;100.00;99672.41;4916002;28;20599;-82
2022/02/06 03:17:02;;;;;;;10.52;4.95;;;5.70;99.90;;;4.08;100.00;99654.19;4902776;28;20033;-82
2022/02/06 03:19:40;;;;;;;9.00;4.72;;;5.70;99.90;;;4.08;100.00;99662.00;4886932;28;20037;-82
2022/02/06 03:22:19;;;;;;;10.75;4.80;;;5.70;99.90;;;4.16;100.00;99661.72;4893522;28;20058;-82
2022/02/06 03:24:55;;;;;;;8.65;4.30;;;5.80;99.90;;;4.12;100.00;99653.16;4871006;28;20694;-82
2022/02/06 03:27:36;;;;;;;9.25;4.75;;;5.80;99.90;;;4.13;100.00;99635.81;4905140;28;20033;-82
2022/02/06 03:30:11;;;;;;;10.50;4.60;;;5.80;99.90;;;4.15;100.00;99645.25;4933667;28;20039;-82
2022/02/06 03:32:37;;;;;;;7.43;4.60;;;5.80;99.90;;;4.17;100.00;99638.22;4887153;28;20085;-82
2022/02/06 03:35:04;;;;;;;9.88;4.30;;;5.80;99.90;;;4.16;100.00;99626.09;4908126;28;20486;-81
2022/02/06 03:37:40;;;;;;;10.43;4.97;;;5.80;99.90;;;4.23;100.00;99614.56;4913103;28;20043;-83
2022/02/06 03:40:18;;;;;;;10.93;4.30;;;5.80;99.90;;;4.23;100.00;99622.38;4901832;28;21959;-82
2022/02/06 03:42:56;;;;;;;11.52;4.05;;;5.80;99.90;;;4.25;100.00;99619.69;4906524;28;20109;-82
2022/02/06 03:45:25;;;;;;;11.07;3.90;;;5.80;99.90;;;4.24;100.00;99605.81;4904054;28;20030;-81
2022/02/06 03:47:57;;;;;;;9.48;4.57;;;5.90;99.90;;;4.29;100.00;99603.88;4915324;28;20038;-82
2022/02/06 03:50:33;;;;;;;7.28;3.75;;;5.90;99.90;;;4.28;100.00;99594.38;4886136;28;20048;-82
2022/02/06 03:53:11;;;;;;;10.63;3.75;;;5.90;99.90;;;4.33;100.00;99594.19;4920443;28;20026;-83
2022/02/06 03:55:48;;;;;;;12.07;4.05;;;5.90;99.90;;;4.31;100.00;99589.03;4917093;28;20509;-82
2022/02/06 03:58:14;;;;;;;8.18;3.20;;;6.00;99.90;;;4.33;100.00;99581.16;4905978;28;20042;-82
2022/02/06 04:00:40;;;;;;;5.57;3.20;;;5.90;99.90;;;4.39;100.00;99593.09;4926608;28;20034;-82
2022/02/06 04:03:14;;;;;;;6.80;3.33;;;6.00;99.90;;;4.35;100.00;99573.28;4893132;28;20037;-83
2022/02/06 04:05:45;;;;;;;6.38;3.22;;;6.00;99.90;;;4.41;100.00;99580.88;4900385;28;20063;-82
2022/02/06 04:08:20;;;;;;;6.60;3.25;;;6.00;99.90;;;4.42;100.00;99578.16;4925054;28;20065;-83
2022/02/06 04:10:50;;;;;;;7.77;3.20;;;6.00;99.90;;;4.44;100.00;99570.31;4892641;28;20469;-82
2022/02/06 04:13:24;;;;;;;12.55;3.25;;;;;;;4.46;100.00;99565.88;4896628;28;20429;-83
2022/02/06 04:16:03;;;;;;;6.90;3.20;;;6.10;99.90;;;4.45;100.00;99564.16;4930656;28;20073;-82
2022/02/06 04:18:40;;;;;;;6.43;3.28;;;6.00;99.90;;;4.44;100.00;99557.28;4904454;28;20028;-82
2022/02/06 04:21:06;;;;;;;6.78;3.10;;;6.00;99.90;;;4.41;100.00;99540.00;4895407;28;20079;-82
2022/02/06 04:23:33;;;;;;;7.13;3.35;;;;;;;4.46;100.00;99550.22;4909271;28;20451;-82
2022/02/06 04:26:00;;;;;;;6.15;2.88;;;6.10;99.90;;;4.49;100.00;99548.38;4900398;28;20106;-83
2022/02/06 04:28:35;;;;;;;7.30;2.92;;;6.10;99.90;;;4.49;100.00;99527.50;4897901;28;20050;-82
2022/02/06 04:31:02;;;;;;;5.78;3.20;;;6.10;99.90;;;4.53;100.00;99528.22;4917093;28;20058;-83
2022/02/06 04:33:28;;;;;;;10.13;3.08;;;6.10;99.90;;;4.54;100.00;99527.31;4911848;28;20440;-80
2022/02/06 04:36:03;;;;;;;6.57;3.25;;;6.10;99.90;;;4.57;100.00;99516.75;4905495;28;20026;-82
2022/02/06 04:39:12;;;;;;;6.90;2.80;;;6.10;99.90;;;4.57;100.00;99518.53;4927055;28;20027;-82
2022/02/06 05:15:19;;;;;;;5.78;2.55;;;6.30;99.90;;;4.63;100.00;99456.53;4926902;28;20060;-84
2022/02/06 05:18:16;;;;;;;5.45;2.53;;;6.30;99.90;;;4.69;100.00;99460.66;4878146;28;20018;-82
2022/02/06 05:21:12;;;;;;;3.63;2.50;;;6.30;99.90;;;4.68;100.00;99448.50;4898609;28;20403;-83
2022/02/06 05:31:27;;;;;;;6.72;2.60;;;6.30;99.90;;;4.78;100.00;99444.59;4894827;28;20057;-83
2022/02/06 05:33:54;;;;;;;5.20;2.75;;;6.30;99.90;;;4.74;100.00;99440.44;4906067;28;20042;-81
2022/02/06 05:36:20;;;;;;;4.40;2.70;;;6.40;99.90;;;4.73;100.00;99439.59;4915117;28;20956;-83
2022/02/06 05:38:46;;;;;;;4.40;2.85;;;6.40;99.90;;;4.75;100.00;99442.13;4899380;28;20017;-83
2022/02/06 05:41:12;;;;;;;4.82;2.65;;;6.30;99.90;;;4.79;100.00;99441.06;4928929;28;20033;-84
2022/02/06 05:43:45;;;;;;;3.40;2.05;;;6.30;99.90;;;4.76;100.00;99433.38;4865816;28;20041;-81
2022/02/06 05:46:11;;;;;;;5.10;2.30;;;6.30;99.90;;;4.78;100.00;99431.56;4922382;28;20081;-82
2022/02/06 05:48:37;;;;;;;3.90;2.45;;;6.40;99.90;;;4.81;100.00;99418.38;4930181;28;20043;-82
2022/02/06 05:51:03;;;;;;;5.03;2.85;;;6.40;99.90;;;4.80;100.00;99421.06;4914906;28;20029;-84
2022/02/06 05:53:40;;;;;;;2.75;2.20;;;6.40;99.90;;;4.82;100.00;99407.06;4948811;28;20082;-82
2022/02/06 05:56:06;;;;;;;4.30;2.70;;;6.40;99.90;;;4.82;100.00;99409.66;4907965;28;20023;-83
2022/02/06 05:58:42;;;;;;;4.72;2.38;;;6.40;99.90;;;4.82;100.00;99409.66;4909432;28;20034;-83
2022/02/06 06:01:09;;;;;;;3.47;2.30;;;6.40;99.90;;;4.84;100.00;99401.78;4900862;28;20032;-82
2022/02/06 06:03:34;;;;;;;3.40;2.03;;;6.40;99.90;;;4.87;100.00;99409.44;4922588;28;20498;-83
2022/02/06 06:06:01;;;;;;;5.05;2.45;;;6.40;99.90;;;4.86;100.00;99384.25;4905602;28;20117;-83
2022/02/06 06:08:36;;;;;;;4.30;2.10;;;6.40;99.90;;;4.85;100.00;99388.66;4884251;28;20046;-83
2022/02/06 06:11:02;;;;;;;3.22;2.20;;;6.40;99.90;;;4.83;100.00;99387.88;4898841;28;20034;-83
2022/02/06 06:13:28;;;;;;;3.80;2.20;;;6.40;99.90;;;4.87;100.00;99379.00;4893825;28;20558;-83
2022/02/06 06:16:05;;;;;;;6.25;2.35;;;6.50;99.90;;;4.87;100.00;99384.22;4892409;28;20026;-83
2022/02/06 06:18:31;;;;;;;5.95;2.38;;;6.50;99.90;;;4.89;100.00;99378.94;4925616;28;20029;-83
2022/02/06 06:21:06;;;;;;;2.95;1.98;;;6.50;99.90;;;4.90;100.00;99378.88;4874628;28;20470;-83
2022/02/06 06:23:32;;;;;;;3.08;1.80;;;6.50;99.90;;;4.89;100.00;99369.34;4915321;28;20498;-84
2022/02/06 06:25:58;;;;;;;2.95;1.83;;;6.40;99.90;;;4.90;100.00;99354.53;4914390;28;20040;-83
2022/02/06 06:28:24;;;;;;;4.40;1.95;;;6.50;99.90;;;4.91;100.00;99357.06;4913923;28;20038;-83
2022/02/06 06:30:59;;;;;;;4.07;1.90;;;6.50;99.90;;;4.91;100.00;99366.66;4915632;28;20042;-82
2022/02/06 06:33:25;;;;;;;2.00;1.40;;;6.50;99.90;;;4.96;100.00;99353.41;4911809;28;20029;-83
2022/02/06 06:35:52;;;;;;;3.92;1.70;;;6.50;99.90;;;4.94;100.00;99353.47;4912662;28;20084;-83
2022/02/06 06:38:28;;;;;;;1.98;1.40;;;6.50;99.90;;;4.96;100.00;99348.19;4913433;28;20041;-83
2022/02/06 06:40:54;;;;;;;2.53;1.60;;;6.50;99.90;;;4.97;100.00;99326.41;4915221;28;20030;-84
2022/02/06 06:43:20;;;;;;;1.80;1.13;;;6.60;99.90;;;5.02;100.00;99335.72;4919412;28;20033;-83
2022/02/06 06:45:56;;;;;;;1.90;1.00;;;6.60;99.90;;;5.01;100.00;99330.56;4924755;28;20125;-83
2022/02/06 06:48:22;;;;;;;1.77;0.95;;;6.60;99.90;;;5.04;100.00;99327.81;4924294;28;20056;-83
2022/02/06 06:50:48;;;;;;;1.63;1.20;;;6.60;99.90;;;5.12;100.00;99325.72;4904217;28;20228;-83
2022/02/06 06:53:23;;;;;;;1.27;0.85;;;6.60;99.90;;;5.10;100.00;99336.22;4912649;28;20042;-85
2022/02/06 06:55:57;;;;;;;1.23;0.98;;;6.60;99.90;;;5.14;100.00;99332.56;4882283;28;20402;-84
2022/02/06 06:58:33;;;;;;;1.95;0.93;;;;;;;5.15;100.00;99328.16;4931617;28;20098;-82
2022/02/06 07:03:52;;;;;;;0.98;0.73;;;6.70;99.90;;;5.12;100.00;99321.34;4930079;28;19916;-83
2022/02/06 07:06:27;;;;;;;2.05;0.70;;;6.70;99.90;;;5.13;100.00;99319.56;4897678;28;20050;-84
2022/02/06 07:08:53;;;;;;;1.33;0.70;;;6.70;99.90;;;5.14;100.00;99316.91;4899904;28;20510;-83
2022/02/06 07:11:19;;;;;;;1.98;0.90;;;6.70;99.90;;;5.19;100.00;99321.06;4864065;28;20049;-83
2022/02/06 07:13:56;;;;;;;1.75;0.70;;;6.70;99.90;;;5.23;100.00;99299.97;4936003;28;20043;-82
2022/02/06 07:16:22;;;;;;;0.73;0.60;;;6.80;99.90;;;5.24;100.00;99300.78;4919182;28;20541;-83
2022/02/06 07:18:48;;;;;;;0.82;0.52;;;6.80;99.90;;;5.24;100.00;99292.97;4894334;28;20523;-81
2022/02/06 07:21:40;;;;;;;1.17;0.70;;;6.80;99.90;;;5.29;100.00;99283.16;4893041;28;20072;-84
2022/02/06 07:24:07;;;;;;;7.72;1.10;;;6.80;99.90;;;5.29;100.00;99273.56;4900105;28;20124;-83
2022/02/06 07:26:48;;;;;;;1.67;0.80;;;6.90;99.90;;;5.30;100.00;99285.69;4920469;28;20049;-83
2022/02/06 07:29:24;;;;;;;2.70;0.68;;;6.90;99.90;;;5.32;100.00;99289.06;4939827;28;20031;-83
2022/02/06 07:31:52;;;;;;;1.33;0.60;;;6.80;99.90;;;5.32;100.00;99276.03;4911661;28;20043;-83
2022/02/06 07:34:28;;;;;;;0.98;0.70;;;6.90;99.90;;;5.33;100.00;99261.19;4930284;28;20235;-83
2022/02/06 07:36:54;;;;;;;0.73;0.50;;;6.90;99.90;;;5.31;100.00;99266.50;4963142;28;20029;-82
2022/02/06 07:39:20;;;;;;;1.08;0.70;;;6.90;99.90;;;5.40;100.00;99274.78;4924751;28;20173;-82
2022/02/06 07:41:54;;;;;;;1.42;0.60;;;6.90;99.90;;;5.46;100.00;99277.94;4954675;28;20463;-83
2022/02/06 07:44:21;;;;;;;0.60;0.60;;;6.90;99.90;;;5.47;100.00;99284.88;4889520;28;20038;-84
2022/02/06 07:46:48;;;;;;;0.93;0.60;;;7.00;99.90;;;5.45;100.00;99281.50;4905362;28;20030;-83
2022/02/06 07:49:38;;;;;;;0.88;0.47;;;7.00;99.90;;;5.48;100.00;99270.88;4911160;28;20065;-81
2022/02/06 07:52:04;;;;;;;2.42;0.80;;;7.00;99.90;;;5.48;100.00;99267.44;4876306;28;20107;-83
2022/02/06 07:54:31;;;;;;;0.50;0.50;;;7.00;99.90;;;5.50;100.00;99271.66;4945556;28;20466;-83
2022/02/06 07:57:06;;;;;;;2.38;1.25;;;7.00;99.90;;;5.49;100.00;99277.81;4918646;28;20034;-83
2022/02/06 07:59:46;;;;;;;1.08;0.60;;;;;;;5.51;100.00;99277.75;4907665;28;22110;-84
2022/02/06 08:02:13;;;;;;;0.50;0.50;;;7.00;99.90;;;5.52;100.00;99269.00;4931879;28;20088;-84
2022/02/06 08:04:39;;;;;;;0.80;0.60;;;7.10;99.90;;;5.52;100.00;99250.72;4923529;28;20833;-84
2022/02/06 08:07:16;;;;;;;1.02;0.50;;;7.10;99.90;;;5.60;100.00;99264.25;4889535;28;20397;-83
2022/02/06 08:09:58;;;;;;;1.33;0.73;;;;;;;5.65;100.00;99264.00;4912956;28;20090;-83
2022/02/06 08:12:50;;;;;;;1.20;0.50;;;7.10;99.90;;;5.63;100.00;99260.63;4948616;28;20510;-83
2022/02/06 08:15:16;;;;;;;2.05;0.50;;;7.20;99.90;;;5.67;100.00;99252.56;4903808;28;20050;-83
2022/02/06 08:17:43;;;;;;;1.17;0.65;;;;;;;5.73;100.00;99248.81;4924516;28;20026;-83
2022/02/06 08:20:19;;;;;;;0.40;0.40;;;7.20;99.90;;;5.80;100.00;99246.72;4903850;28;20117;-82
2022/02/06 08:22:45;;;;;;;1.00;0.60;;;7.30;99.90;;;5.86;100.00;99262.94;4902513;28;20141;-83
2022/02/06 08:25:22;;;;;;;0.77;0.50;;;7.30;99.90;;;5.92;100.00;99241.72;4926391;28;20067;-84
2022/02/06 08:27:48;;;;;;;0.70;0.35;;;7.40;99.90;;;5.91;100.00;99244.41;4883691;28;20151;-83
2022/02/06 08:30:15;;;;;;;0.95;0.50;;;7.40;99.90;;;5.94;100.00;99242.53;4930751;28;20514;-82
2022/02/06 08:32:54;;;;;;;1.25;0.70;;;;;;;6.02;100.00;99243.88;4943475;28;22758;-83
2022/02/06 08:35:22;;;;;;;2.47;0.50;;;7.50;99.90;;;6.03;100.00;99217.69;4930786;28;20054;-83
2022/02/06 08:37:58;;;;;;;1.13;0.40;;;7.60;99.90;;;6.10;100.00;99233.91;4943127;28;20108;-82
2022/02/06 08:40:23;;;;;;;1.48;1.02;;;7.50;99.90;;;6.13;100.00;99229.38;4923611;28;20043;-83
2022/02/06 08:42:57;;;;;;;1.42;0.43;;;;;;;6.20;100.00;99235.09;4899110;28;20033;-83
2022/02/06 08:45:28;;;;;;;2.08;0.70;;;7.60;99.90;;;6.19;100.00;99227.34;4913951;28;20111;-84
2022/02/06 08:48:03;;;;;;;0.40;0.38;;;7.60;99.90;;;6.14;100.00;99219.75;4881288;28;20049;-81
2022/02/06 08:50:29;;;;;;;6.15;0.60;;;7.70;99.90;;;6.21;100.00;99230.72;4908293;28;20431;-83
2022/02/06 08:53:02;;;;;;;0.68;0.47;;;7.70;99.90;;;6.22;100.00;99232.41;4893713;28;20034;-83
2022/02/06 08:55:31;;;;;;;1.33;0.40;;;7.70;99.90;;;6.19;100.00;99233.41;4890115;28;20570;-83
2022/02/06 08:57:57;;;;;;;0.43;0.43;;;7.70;99.90;;;6.28;100.00;99243.38;4880190;28;20022;-81
2022/02/06 09:00:34;;;;;;;1.38;0.40;;;7.70;99.90;;;6.25;100.00;99214.78;4864021;28;20031;-82
2022/02/06 09:03:00;;;;;;;2.35;0.65;;;7.70;99.90;;;6.31;100.00;99230.16;4925781;28;20147;-83
2022/02/06 09:05:28;;;;;;;0.63;0.50;;;7.80;99.90;;;6.33;100.00;99232.69;4879093;28;20026;-82
2022/02/06 09:08:05;;;;;;;2.30;0.70;;;7.80;99.90;;;6.41;100.00;99200.91;4896631;28;20030;-84
2022/02/06 09:10:31;;;;;;;1.05;0.60;;;7.90;99.90;;;6.51;100.00;99230.88;4909358;28;22692;-82
2022/02/06 09:13:07;;;;;;;0.57;0.50;;;7.90;99.90;;;6.43;100.00;99217.34;4901624;28;20046;-83
2022/02/06 09:15:33;;;;;;;2.00;0.75;;;7.90;99.90;;;6.38;100.00;99207.16;4896467;28;20037;-83
2022/02/06 09:17:59;;;;;;;1.05;0.73;;;7.90;99.90;;;6.48;100.00;99218.81;4875822;28;20067;-83
2022/02/06 09:20:34;;;;;;;0.85;0.68;;;7.90;99.90;;;6.64;100.00;99203.13;4921946;28;20019;-84
2022/02/06 09:23:02;;;;;;;0.60;0.60;;;8.00;99.90;;;6.55;100.00;99229.78;4893060;28;20026;-83
2022/02/06 09:25:28;;;;;;;2.13;0.70;;;8.00;99.90;;;6.46;100.00;99217.22;4907746;28;20033;-83
2022/02/06 09:28:03;;;;;;;3.92;1.40;;;8.00;99.90;;;6.49;100.00;99223.09;4882919;28;20067;-84
2022/02/06 09:30:30;;;;;;;5.15;3.75;;;8.00;99.90;;;6.49;100.00;99211.78;4890591;28;20092;-83
2022/02/06 09:35:32;;;;;;;3.27;2.23;;;8.00;99.90;;;6.49;100.00;99207.41;4898801;28;20031;-82
2022/02/06 09:37:58;;;;;;;5.22;3.40;;;8.00;99.90;;;6.57;100.00;99207.00;4906987;28;20956;-83
2022/02/06 09:40:48;;;;;;;4.13;1.92;;;8.00;99.90;;;6.58;100.00;99072.69;4899816;28;20042;-83
2022/02/06 09:43:15;;;;;;;9.25;3.50;;;8.00;99.90;;;6.67;100.00;99094.84;4935540;28;20427;-82
2022/02/06 09:45:42;;;;;;;12.40;5.30;;;8.10;99.90;;;6.77;100.00;99114.34;4912684;28;20030;-83
2022/02/06 09:48:16;;;;;;;5.35;2.58;;;8.10;99.90;;;6.79;100.00;99120.34;4875400;28;20479;-83
2022/02/06 09:50:46;;;;;;;4.05;1.85;;;8.20;99.90;;;6.84;100.00;99114.84;4917943;28;20042;-83
2022/02/06 09:53:12;;;;;;;2.08;1.15;;;8.30;99.90;;;6.89;100.00;99121.50;4895837;28;20089;-83
2022/02/06 09:55:47;;;;;;;2.08;0.63;;;8.30;99.90;;;7.02;100.00;99119.03;4890946;28;20117;-82
2022/02/06 09:58:55;;;;;;;;;;;;;;;;;;;;;
2022/02/06 10:01:09;;;;;;;1.40;0.43;;;8.30;99.90;;;7.01;100.00;99126.97;4881568;28;20074;-82
2022/02/06 10:03:50;;;;;;;2.38;0.80;;;8.40;99.90;;;6.93;100.00;99122.16;4919131;28;20040;-82
2022/02/06 10:06:44;;;;;;;8.10;3.78;;;8.40;99.90;;;6.84;100.00;99120.06;4889219;28;20026;-83
2022/02/06 10:09:26;;;;;;;2.45;1.77;;;8.30;99.90;;;6.88;100.00;99111.94;4898962;28;20712;-83
2022/02/06 10:12:05;;;;;;;3.55;2.42;;;;;;;6.92;100.00;99107.41;4910317;28;20035;-83
2022/02/06 10:14:40;;;;;;;3.72;2.47;;;8.40;99.90;;;7.02;100.00;99097.22;4897844;28;20048;-83
2022/02/06 10:17:06;;;;;;;2.25;1.65;;;8.40;99.90;;;7.11;100.00;99102.78;4943749;28;20034;-82
2022/02/06 10:19:36;;;;;;;1.70;1.20;;;8.40;99.90;;;7.08;100.00;99086.41;4922442;28;20113;-83
2022/02/06 10:22:37;;;;;;;0.50;0.40;;;8.40;99.90;;;7.06;100.00;99083.91;4913112;23;20522;-83
2022/02/06 10:25:09;;;;;;;0.20;0.20;;;8.50;99.90;;;7.00;100.00;99079.03;4899996;28;20124;-81
2022/02/06 10:28:04;;;;;;;0.40;0.40;;;8.40;99.90;;;7.05;100.00;99092.66;4917861;28;20557;-82
2022/02/06 10:30:55;;;;;;;0.75;0.10;;;8.40;99.90;;;6.96;100.00;99077.50;4924745;28;20054;-83
2022/02/06 10:33:24;;;;;;;0.20;0.20;;;8.40;99.90;;;7.01;100.00;99075.47;4886112;28;20085;-84
2022/02/06 10:36:38;;;;;;;0.90;0.30;;;8.40;99.90;;;6.95;100.00;99062.72;4891518;28;20792;-84
2022/02/06 10:39:15;;;;;;;1.55;0.88;;;;;;;6.88;100.00;99057.00;4909354;28;20097;-89
2022/02/06 10:41:50;;;;;;;0.40;0.20;;;8.30;99.90;;;6.79;100.00;99044.47;4917609;23;20155;-83
2022/02/06 10:44:20;;;;;;;1.20;0.57;;;8.30;99.90;;;6.84;100.00;99041.56;4922217;28;20040;-83
2022/02/06 10:47:01;;;;;;;0.40;0.40;;;8.30;99.90;;;6.82;100.00;99030.34;4907909;28;20030;-83
2022/02/06 10:49:27;;;;;;;0.20;0.20;;;8.30;99.90;;;6.92;100.00;99023.66;4910665;28;20049;-82
2022/02/06 10:52:03;;;;;;;1.73;1.20;;;;;;;7.02;100.00;99032.66;4894131;28;20025;-83
2022/02/06 10:54:29;;;;;;;0.70;0.47;;;8.40;99.90;;;7.05;100.00;99027.25;4909862;28;20045;-82
2022/02/06 10:57:24;;;;;;;0.88;0.75;;;8.40;99.90;;;7.11;100.00;99023.44;4938433;28;20643;-82
2022/02/06 11:00:33;;;;;;;0.30;0.30;;;8.40;99.90;;;7.00;100.00;99000.50;4887549;28;20613;-81
2022/02/06 11:03:31;;;;;;;0.20;0.20;;;8.40;99.90;;;6.91;100.00;99006.25;4881682;23;20102;-84
2022/02/06 11:06:08;;;;;;;2.20;0.20;;;8.30;99.90;;;6.87;100.00;98989.94;4935839;28;20108;-84
2022/02/06 11:08:37;;;;;;;1.17;0.43;;;8.30;99.90;;;6.91;100.00;98998.41;4893514;28;20052;-84
2022/02/06 11:11:12;;;;;;;1.17;0.20;;;8.30;99.90;;;6.96;100.00;98984.13;4924976;28;20037;-85
2022/02/06 11:13:38;;;;;;;1.80;0.50;;;8.40;99.90;;;7.00;100.00;99008.38;4927604;28;20124;-84
2022/02/06 11:16:19;;;;;;;0.52;0.20;;;8.40;99.90;;;7.00;100.00;99021.44;4897175;28;20107;-83
2022/02/06 11:19:18;;;;;;;1.23;1.02;;;8.40;99.90;;;7.05;100.00;99016.78;4839693;28;20026;-84
2022/02/06 11:22:04;;;;;;;1.80;0.80;;;8.40;99.90;;;7.05;100.00;99008.09;4918759;23;20076;-83
2022/02/06 11:24:37;;;;;;;1.25;0.60;;;8.40;99.90;;;7.00;100.00;99005.75;4900386;28;20037;-84
2022/02/06 11:27:14;;;;;;;1.50;0.30;;;8.40;99.90;;;6.86;100.00;98997.84;4899614;28;20109;-85
2022/02/06 11:29:57;;;;;;;1.70;0.30;;;8.30;99.90;;;6.83;100.00;98992.81;4897680;28;20045;-88
2022/02/06 11:32:26;;;;;;;1.80;0.50;;;8.30;99.90;;;6.79;100.00;98997.38;4953593;28;20041;-84
2022/02/06 11:35:02;;;;;;;1.58;0.75;;;;;;;6.81;100.00;98994.69;4901073;28;20029;-85
2022/02/06 11:43:59;;;;;;;1.05;0.30;;;8.10;99.90;;;6.56;100.00;98975.16;4971639;23;20142;-84
2022/02/06 11:46:58;;;;;;;0.10;0.10;;;8.00;99.90;;;6.48;100.00;98965.16;4980858;28;20037;-84
2022/02/06 11:49:25;;;;;;;0.93;0.40;;;8.00;99.90;;;6.39;100.00;98967.47;4956602;28;20129;-84
2022/02/06 11:52:02;;;;;;;0.90;0.25;;;7.90;99.90;;;6.33;100.00;98969.50;4920325;28;20972;-83
2022/02/06 11:55:32;;;;;;;2.10;0.65;;;7.90;99.90;;;6.25;100.00;98957.81;4947747;28;20032;-84
2022/02/06 11:58:43;;;;;;;10.00;1.48;;;7.80;99.90;;;6.24;100.00;98961.34;4981675;28;20041;-84
2022/02/06 12:01:11;;;;;;;2.60;0.55;;;7.80;99.90;;;6.25;100.00;98944.72;4917376;23;20459;-85
2022/02/06 12:03:49;;;;;;;3.88;2.72;;;;;;;6.22;100.00;98937.91;4963722;28;20056;-84
2022/02/06 12:06:25;;;;;;;2.30;1.60;;;7.70;99.90;;;6.25;100.00;98931.66;4927606;28;20097;-85
2022/02/06 12:09:10;;;;;;;1.88;1.33;;;7.70;99.90;;;6.21;100.00;98922.31;4920852;28;20182;-85
2022/02/06 12:12:20;;;;;;;1.20;0.50;;;7.70;99.90;;;6.22;100.00;98916.16;4954499;28;20226;-83
2022/02/06 12:15:12;;;;;;;1.58;0.95;;;7.70;99.90;;;6.20;100.00;98910.16;4848966;28;20098;-84
2022/02/06 12:18:08;;;;;;;1.20;0.30;;;7.60;99.90;;;6.09;100.00;98900.31;4883396;28;20042;-84
2022/02/06 12:21:11;;;;;;;;;;;;;;;;;;;;;
2022/02/06 12:24:18;;;;;;;0.45;0.22;;;7.60;99.90;;;6.02;100.00;98881.53;4982490;23;20128;-85
2022/02/06 12:27:10;;;;;;;1.90;0.32;;;7.50;99.90;;;6.07;100.00;98874.31;4979156;28;20029;-84
2022/02/06 12:29:53;;;;;;;0.60;0.10;;;7.50;99.90;;;6.03;100.00;98874.56;4925437;28;20060;-84
2022/02/06 12:32:50;;;;;;;;;;;;;;;;;;;;;
2022/02/06 12:38:32;;;;;;;1.45;0.40;;;7.40;99.90;;;5.94;100.00;98836.72;5013195;28;19956;-84
2022/02/06 12:43:36;;;;;;;0.75;0.50;;;7.40;99.90;;;6.02;100.00;98829.28;4976674;23;20040;-84
2022/02/06 12:46:08;;;;;;;2.40;0.73;;;7.40;99.90;;;6.03;100.00;98817.09;4906502;28;20530;-85
2022/02/06 12:48:34;;;;;;;4.97;1.38;;;7.40;99.90;;;6.03;100.00;98809.25;4906602;28;20039;-84
2022/02/06 12:51:12;;;;;;;8.85;5.30;;;7.40;99.90;;;6.04;100.00;98810.91;4934800;28;20387;-84
2022/02/06 12:53:39;;;;;;;1.70;0.60;;;7.40;99.90;;;6.04;100.00;98800.47;4923812;28;20511;-84
2022/02/06 12:56:05;;;;;;;3.97;2.17;;;7.40;99.90;;;6.05;100.00;98794.34;4930737;28;20116;-84
2022/02/06 12:58:31;;;;;;;1.00;0.50;;;7.40;99.90;;;5.98;100.00;98791.22;4958281;28;20036;-84
2022/02/06 13:03:36;;;;;;;6.07;0.50;;;7.40;99.90;;;5.99;100.00;98786.84;4952444;23;20129;-84
2022/02/06 13:06:15;;;;;;;2.10;0.30;;;7.40;99.90;;;5.86;100.00;98779.69;4914652;28;20446;-84
2022/02/06 13:08:51;;;;;;;1.48;0.40;;;7.30;99.90;;;5.83;100.00;98761.59;4903069;28;20631;-84
2022/02/06 13:11:22;;;;;;;;;;;7.30;99.90;;;5.78;100.00;98758.38;4916054;28;20050;-84